createdAt,value
2023-05-01T00:00:44.886Z,6.59
2023-05-01T00:03:31.860Z,6.64
2023-05-01T00:06:18.311Z,6.56
2023-05-01T00:09:08.107Z,6.61
2023-05-01T00:11:54.656Z,6.69
2023-05-01T00:14:41.841Z,6.85
2023-05-01T00:17:28.237Z,6.98
2023-05-01T00:20:17.834Z,6.51
2023-05-01T00:23:04.295Z,6.75
2023-05-01T00:25:50.589Z,6.76
2023-05-01T00:28:36.998Z,6.69
2023-05-01T00:31:24.843Z,6.67
2023-05-01T00:34:12.029Z,6.52
2023-05-01T00:36:59.082Z,6.54
2023-05-01T00:39:45.731Z,6.59
2023-05-01T00:42:37.157Z,6.56
2023-05-01T00:45:25.373Z,6.15
2023-05-01T00:48:12.162Z,6.40
2023-05-01T00:51:00.625Z,6.50
2023-05-01T00:53:47.081Z,6.65
2023-05-01T00:56:33.865Z,6.51
2023-05-01T00:59:20.734Z,6.72
2023-05-01T01:02:06.975Z,6.51
2023-05-01T01:04:56.406Z,6.44
2023-05-01T01:07:54.561Z,6.47
2023-05-01T01:10:56.991Z,6.31
2023-05-01T01:13:52.800Z,6.23
2023-05-01T01:16:53.819Z,6.34
2023-05-01T01:20:04.061Z,6.52
2023-05-01T01:23:06.559Z,6.38
2023-05-01T01:26:12.449Z,6.26
2023-05-01T01:29:26.575Z,6.20
2023-05-01T01:32:44.281Z,6.25
2023-05-01T01:35:32.139Z,6.19
2023-05-01T01:38:45.029Z,6.20
2023-05-01T01:41:34.477Z,6.21
2023-05-01T01:44:47.881Z,6.24
2023-05-01T01:47:35.531Z,6.14
2023-05-01T01:50:26.245Z,6.25
2023-05-01T01:53:17.776Z,6.26
2023-05-01T01:56:07.727Z,6.29
2023-05-01T01:58:55.760Z,6.24
2023-05-01T02:01:44.787Z,6.67
2023-05-01T02:04:32.833Z,6.67
2023-05-01T02:07:20.584Z,6.77
2023-05-01T02:10:09.802Z,6.54
2023-05-01T02:12:58.981Z,6.39
2023-05-01T02:15:46.526Z,6.32
2023-05-01T02:18:36.442Z,6.41
2023-05-01T02:21:23.414Z,6.53
2023-05-01T02:24:12.148Z,6.51
2023-05-01T02:27:03.803Z,6.38
2023-05-01T02:29:54.031Z,6.41
2023-05-01T02:32:40.557Z,6.45
2023-05-01T02:35:27.280Z,6.39
2023-05-01T02:38:15.143Z,6.39
2023-05-01T02:41:03.669Z,6.36
2023-05-01T02:43:55.133Z,6.42
2023-05-01T02:46:44.977Z,6.45
2023-05-01T02:49:32.457Z,6.52
2023-05-01T02:52:20.702Z,6.65
2023-05-01T02:55:10.098Z,6.66
2023-05-01T02:58:00.162Z,6.54
2023-05-01T03:00:49.648Z,6.55
2023-05-01T03:03:37.319Z,6.62
2023-05-01T03:06:23.902Z,6.64
2023-05-01T03:09:11.775Z,6.60
2023-05-01T03:11:58.492Z,6.77
2023-05-01T03:14:44.700Z,6.76
2023-05-01T03:17:31.065Z,6.72
2023-05-01T03:20:17.776Z,6.71
2023-05-01T03:23:04.014Z,6.67
2023-05-01T03:25:51.769Z,6.72
2023-05-01T03:28:38.662Z,6.65
2023-05-01T03:31:25.904Z,6.70
2023-05-01T03:34:14.106Z,6.71
2023-05-01T03:37:00.557Z,6.90
2023-05-01T03:39:47.790Z,6.77
2023-05-01T03:43:03.403Z,6.82
2023-05-01T03:45:51.138Z,6.74
2023-05-01T03:48:38.417Z,6.94
2023-05-01T03:51:25.695Z,7.26
2023-05-01T03:54:14.086Z,7.21
2023-05-01T03:57:25.019Z,7.20
2023-05-01T04:00:11.918Z,7.24
2023-05-01T04:03:06.634Z,7.08
2023-05-01T04:05:55.327Z,7.01
2023-05-01T04:08:41.911Z,6.64
2023-05-01T04:11:28.480Z,6.82
2023-05-01T04:14:14.859Z,6.83
2023-05-01T04:17:01.714Z,6.86
2023-05-01T04:19:53.628Z,7.14
2023-05-01T04:22:40.153Z,7.19
2023-05-01T04:25:27.331Z,7.00
2023-05-01T04:28:19.525Z,7.02
2023-05-01T04:31:06.118Z,7.12
2023-05-01T04:33:52.775Z,7.21
2023-05-01T04:36:39.652Z,7.32
2023-05-01T04:39:26.214Z,7.49
2023-05-01T04:42:13.554Z,7.56
2023-05-01T04:45:04.276Z,7.34
2023-05-01T04:47:54.567Z,7.63
2023-05-01T04:50:40.719Z,7.61
2023-05-01T04:53:28.315Z,7.51
2023-05-01T04:56:14.733Z,7.78
2023-05-01T04:59:01.463Z,7.73
2023-05-01T05:01:49.643Z,7.39
2023-05-01T05:04:36.652Z,7.87
2023-05-01T05:07:23.343Z,7.84
2023-05-01T05:10:28.186Z,7.87
2023-05-01T05:13:40.668Z,7.69
2023-05-01T05:16:31.384Z,7.77
2023-05-01T05:19:17.777Z,7.81
2023-05-01T05:22:05.304Z,7.92
2023-05-01T05:25:04.088Z,7.83
2023-05-01T05:27:50.892Z,7.82
2023-05-01T05:30:37.566Z,7.97
2023-05-01T05:33:25.681Z,8.16
2023-05-01T05:36:12.333Z,8.11
2023-05-01T05:39:02.037Z,8.28
2023-05-01T05:41:49.363Z,8.41
2023-05-01T05:44:36.000Z,8.29
2023-05-01T05:47:22.434Z,8.44
2023-05-01T05:50:10.013Z,8.36
2023-05-01T05:52:56.408Z,8.52
2023-05-01T05:55:43.553Z,8.56
2023-05-01T05:58:30.551Z,8.44
2023-05-01T06:01:17.829Z,8.85
2023-05-01T06:04:04.338Z,8.87
2023-05-01T06:06:53.825Z,9.06
2023-05-01T06:09:41.000Z,9.08
2023-05-01T06:12:27.573Z,9.27
2023-05-01T06:15:16.888Z,9.31
2023-05-01T06:18:09.989Z,9.29
2023-05-01T06:20:56.645Z,9.36
2023-05-01T06:23:43.230Z,9.38
2023-05-01T06:26:44.725Z,9.51
2023-05-01T06:29:31.054Z,9.61
2023-05-01T06:32:18.199Z,9.80
2023-05-01T06:35:05.850Z,9.82
2023-05-01T06:37:52.218Z,9.99
2023-05-01T06:40:39.473Z,10.20
2023-05-01T06:43:30.836Z,10.28
2023-05-01T06:46:17.331Z,10.43
2023-05-01T06:49:04.005Z,10.68
2023-05-01T06:51:50.771Z,10.20
2023-05-01T06:54:37.185Z,11.00
2023-05-01T06:57:23.766Z,10.94
2023-05-01T07:00:10.934Z,10.93
2023-05-01T07:02:57.463Z,11.00
2023-05-01T07:05:44.134Z,11.05
2023-05-01T07:08:30.761Z,11.12
2023-05-01T07:11:17.502Z,11.22
2023-05-01T07:14:03.807Z,11.16
2023-05-01T07:16:51.189Z,11.52
2023-05-01T07:19:37.983Z,11.52
2023-05-01T07:22:24.327Z,11.79
2023-05-01T07:25:10.762Z,11.95
2023-05-01T07:27:57.352Z,11.83
2023-05-01T07:30:43.646Z,11.84
2023-05-01T07:33:29.963Z,11.72
2023-05-01T07:36:18.515Z,11.61
2023-05-01T07:39:06.643Z,11.70
2023-05-01T07:41:53.009Z,12.00
2023-05-01T07:44:39.288Z,12.05
2023-05-01T07:47:27.528Z,11.80
2023-05-01T07:50:14.144Z,12.52
2023-05-01T07:53:00.514Z,12.84
2023-05-01T07:55:47.428Z,13.08
2023-05-01T07:58:34.517Z,13.40
2023-05-01T08:01:21.118Z,12.78
2023-05-01T08:04:07.788Z,13.07
2023-05-01T08:06:54.208Z,13.27
2023-05-01T08:09:40.763Z,13.44
2023-05-01T08:12:28.340Z,13.46
2023-05-01T08:15:15.609Z,13.70
2023-05-01T08:18:01.863Z,13.77
2023-05-01T08:20:49.066Z,14.24
2023-05-01T08:23:35.537Z,14.40
2023-05-01T08:26:22.872Z,14.19
2023-05-01T08:29:10.244Z,14.14
2023-05-01T08:31:58.616Z,14.37
2023-05-01T08:34:45.683Z,14.09
2023-05-01T08:37:32.224Z,14.18
2023-05-01T08:40:18.969Z,14.00
2023-05-01T08:43:05.542Z,13.99
2023-05-01T08:45:55.352Z,13.64
2023-05-01T08:48:44.428Z,13.74
2023-05-01T08:51:33.243Z,13.85
2023-05-01T08:54:20.833Z,14.22
2023-05-01T08:57:10.514Z,14.58
2023-05-01T08:59:58.951Z,14.98
2023-05-01T09:02:48.145Z,15.29
2023-05-01T09:05:34.858Z,15.57
2023-05-01T09:08:21.556Z,15.69
2023-05-01T09:11:08.271Z,15.61
2023-05-01T09:13:55.596Z,15.72
2023-05-01T09:16:45.426Z,15.53
2023-05-01T09:19:32.295Z,15.70
2023-05-01T09:22:19.540Z,15.83
2023-05-01T09:25:06.604Z,15.27
2023-05-01T09:27:53.344Z,16.14
2023-05-01T09:30:40.037Z,16.52
2023-05-01T09:33:27.217Z,16.73
2023-05-01T09:36:17.419Z,16.34
2023-05-01T09:39:04.205Z,16.98
2023-05-01T09:41:52.576Z,16.60
2023-05-01T09:44:43.219Z,16.47
2023-05-01T09:47:30.574Z,17.06
2023-05-01T09:50:34.808Z,17.03
2023-05-01T09:53:36.663Z,16.62
2023-05-01T09:56:23.895Z,16.51
2023-05-01T09:59:19.633Z,16.28
2023-05-01T10:02:06.548Z,16.60
2023-05-01T10:04:58.395Z,16.85
2023-05-01T10:08:02.259Z,17.11
2023-05-01T10:11:05.227Z,17.67
2023-05-01T10:14:10.233Z,17.90
2023-05-01T10:16:58.016Z,17.40
2023-05-01T10:19:44.687Z,17.77
2023-05-01T10:22:31.414Z,17.62
2023-05-01T10:25:18.129Z,17.51
2023-05-01T10:28:06.260Z,17.21
2023-05-01T10:30:54.003Z,17.06
2023-05-01T10:33:41.057Z,17.66
2023-05-01T10:36:42.937Z,17.91
2023-05-01T10:39:34.374Z,18.32
2023-05-01T10:42:20.710Z,18.60
2023-05-01T10:45:30.885Z,19.01
2023-05-01T10:48:45.017Z,19.23
2023-05-01T10:51:32.208Z,19.20
2023-05-01T10:54:18.448Z,19.12
2023-05-01T10:57:06.551Z,19.10
2023-05-01T10:59:58.990Z,19.10
2023-05-01T11:02:45.463Z,19.06
2023-05-01T11:06:07.701Z,19.05
2023-05-01T11:08:55.004Z,19.20
2023-05-01T11:11:44.494Z,19.47
2023-05-01T11:15:03.671Z,19.37
2023-05-01T11:17:50.125Z,19.25
2023-05-01T11:20:36.686Z,19.33
2023-05-01T11:23:23.709Z,19.21
2023-05-01T11:26:11.062Z,19.06
2023-05-01T11:28:59.773Z,19.05
2023-05-01T11:31:48.711Z,18.66
2023-05-01T11:34:37.690Z,18.45
2023-05-01T11:37:47.221Z,18.70
2023-05-01T11:40:34.872Z,18.88
2023-05-01T11:43:21.540Z,19.01
2023-05-01T11:46:09.422Z,19.00
2023-05-01T11:49:01.191Z,19.13
2023-05-01T11:51:56.712Z,19.16
2023-05-01T11:54:49.127Z,18.72
2023-05-01T11:57:53.356Z,19.36
2023-05-01T12:00:43.599Z,19.12
2023-05-01T12:03:41.433Z,19.24
2023-05-01T12:06:45.723Z,19.23
2023-05-01T12:09:33.710Z,18.23
2023-05-01T12:12:20.223Z,18.26
2023-05-01T12:15:07.027Z,18.62
2023-05-01T12:17:53.423Z,18.66
2023-05-01T12:20:41.295Z,19.15
2023-05-01T12:23:37.323Z,19.28
2023-05-01T12:26:28.035Z,19.21
2023-05-01T12:29:14.583Z,18.35
2023-05-01T12:32:01.199Z,18.33
2023-05-01T12:34:48.345Z,18.30
2023-05-01T12:37:34.984Z,18.41
2023-05-01T12:40:22.852Z,18.51
2023-05-01T12:43:09.561Z,18.94
2023-05-01T12:45:56.562Z,18.95
2023-05-01T12:48:43.226Z,19.05
2023-05-01T12:51:30.017Z,19.14
2023-05-01T12:54:23.300Z,18.96
2023-05-01T12:57:12.160Z,18.53
2023-05-01T13:00:01.626Z,18.56
2023-05-01T13:02:48.751Z,18.70
2023-05-01T13:05:35.435Z,18.44
2023-05-01T13:08:40.990Z,18.53
2023-05-01T13:11:27.758Z,18.67
2023-05-01T13:14:14.212Z,18.52
2023-05-01T13:17:00.770Z,18.39
2023-05-01T13:19:54.604Z,18.78
2023-05-01T13:22:41.576Z,19.60
2023-05-01T13:25:27.962Z,19.80
2023-05-01T13:28:19.260Z,20.43
2023-05-01T13:31:12.717Z,20.50
2023-05-01T13:33:59.971Z,20.33
2023-05-01T13:36:46.575Z,20.19
2023-05-01T13:39:32.945Z,19.57
2023-05-01T13:42:24.721Z,18.78
2023-05-01T13:45:12.599Z,18.83
2023-05-01T13:47:59.087Z,18.93
2023-05-01T13:50:45.704Z,19.02
2023-05-01T13:53:32.643Z,19.07
2023-05-01T13:56:19.213Z,19.05
2023-05-01T13:59:06.526Z,19.13
2023-05-01T14:01:52.830Z,18.71
2023-05-01T14:04:40.864Z,18.55
2023-05-01T14:07:27.462Z,18.69
2023-05-01T14:10:13.888Z,18.69
2023-05-01T14:13:01.028Z,18.62
2023-05-01T14:15:47.955Z,18.72
2023-05-01T14:18:35.240Z,18.67
2023-05-01T14:21:23.889Z,18.71
2023-05-01T14:24:10.655Z,19.04
2023-05-01T14:26:57.744Z,19.85
2023-05-01T14:29:44.410Z,20.11
2023-05-01T14:32:33.368Z,20.16
2023-05-01T14:35:24.388Z,19.90
2023-05-01T14:38:12.444Z,19.47
2023-05-01T14:40:58.971Z,19.33
2023-05-01T14:43:45.458Z,19.33
2023-05-01T14:46:35.353Z,19.37
2023-05-01T14:49:24.536Z,19.15
2023-05-01T14:52:12.307Z,19.30
2023-05-01T14:54:59.167Z,19.46
2023-05-01T14:57:46.730Z,19.19
2023-05-01T15:00:32.930Z,18.68
2023-05-01T15:03:19.451Z,18.96
2023-05-01T15:06:06.673Z,18.96
2023-05-01T15:08:52.994Z,18.92
2023-05-01T15:11:41.247Z,18.76
2023-05-01T15:14:27.973Z,18.53
2023-05-01T15:17:14.246Z,18.54
2023-05-01T15:20:00.831Z,18.49
2023-05-01T15:22:47.319Z,18.34
2023-05-01T15:25:33.750Z,18.15
2023-05-01T15:28:20.274Z,17.64
2023-05-01T15:31:07.036Z,17.78
2023-05-01T15:33:53.375Z,17.91
2023-05-01T15:36:39.978Z,17.56
2023-05-01T15:39:26.380Z,17.43
2023-05-01T15:42:12.492Z,17.20
2023-05-01T15:45:00.049Z,17.21
2023-05-01T15:47:47.262Z,17.07
2023-05-01T15:50:33.815Z,17.19
2023-05-01T15:53:21.245Z,17.06
2023-05-01T15:56:09.666Z,17.05
2023-05-01T15:58:56.270Z,16.67
2023-05-01T16:01:42.761Z,16.41
2023-05-01T16:04:29.386Z,16.55
2023-05-01T16:07:15.386Z,16.43
2023-05-01T16:10:02.324Z,16.19
2023-05-01T16:12:50.968Z,15.62
2023-05-01T16:15:38.142Z,14.93
2023-05-01T16:18:25.006Z,14.42
2023-05-01T16:21:13.569Z,14.04
2023-05-01T16:24:01.517Z,13.95
2023-05-01T16:26:48.489Z,13.71
2023-05-01T16:29:35.398Z,13.54
2023-05-01T16:32:23.996Z,13.42
2023-05-01T16:35:15.874Z,13.26
2023-05-01T16:38:02.795Z,12.88
2023-05-01T16:40:49.366Z,13.13
2023-05-01T16:43:35.867Z,13.11
2023-05-01T16:46:22.467Z,13.34
2023-05-01T16:49:14.199Z,13.49
2023-05-01T16:52:03.290Z,13.59
2023-05-01T16:54:51.502Z,13.78
2023-05-01T16:57:37.940Z,13.86
2023-05-01T17:00:24.515Z,14.04
2023-05-01T17:03:10.751Z,13.90
2023-05-01T17:05:59.224Z,13.80
2023-05-01T17:08:45.929Z,13.81
2023-05-01T17:11:32.266Z,13.88
2023-05-01T17:14:19.024Z,13.75
2023-05-01T17:17:09.266Z,13.19
2023-05-01T17:19:55.975Z,13.24
2023-05-01T17:22:44.477Z,13.34
2023-05-01T17:25:30.977Z,13.62
2023-05-01T17:28:18.900Z,13.62
2023-05-01T17:31:05.521Z,13.53
2023-05-01T17:33:52.097Z,13.35
2023-05-01T17:36:39.675Z,13.50
2023-05-01T17:39:28.075Z,13.12
2023-05-01T17:42:14.578Z,13.22
2023-05-01T17:45:03.550Z,13.17
2023-05-01T17:47:51.725Z,12.96
2023-05-01T17:50:38.393Z,12.71
2023-05-01T17:53:25.344Z,12.61
2023-05-01T17:56:11.929Z,12.51
2023-05-01T17:58:58.520Z,12.29
2023-05-01T18:01:44.854Z,12.21
2023-05-01T18:04:31.561Z,12.14
2023-05-01T18:07:18.114Z,12.11
2023-05-01T18:10:04.839Z,11.91
2023-05-01T18:12:51.157Z,11.92
2023-05-01T18:15:37.379Z,11.59
2023-05-01T18:18:24.167Z,12.15
2023-05-01T18:21:10.672Z,11.83
2023-05-01T18:23:57.168Z,11.63
2023-05-01T18:26:43.467Z,11.76
2023-05-01T18:29:30.212Z,10.84
2023-05-01T18:32:16.370Z,11.69
2023-05-01T18:35:02.842Z,11.53
2023-05-01T18:37:50.801Z,11.06
2023-05-01T18:40:37.862Z,10.97
2023-05-01T18:43:24.136Z,11.15
2023-05-01T18:46:10.849Z,10.87
2023-05-01T18:48:57.353Z,10.96
2023-05-01T18:51:43.672Z,10.91
2023-05-01T18:54:31.389Z,10.97
2023-05-01T18:57:17.698Z,10.95
2023-05-01T19:00:04.396Z,10.85
2023-05-01T19:02:51.533Z,10.87
2023-05-01T19:05:38.914Z,11.08
2023-05-01T19:08:25.295Z,10.86
2023-05-01T19:11:11.924Z,11.06
2023-05-01T19:13:58.587Z,10.83
2023-05-01T19:16:45.057Z,10.96
2023-05-01T19:19:31.667Z,10.73
2023-05-01T19:22:17.954Z,10.64
2023-05-01T19:25:04.886Z,10.68
2023-05-01T19:27:51.722Z,10.51
2023-05-01T19:30:38.365Z,10.92
2023-05-01T19:33:24.754Z,10.53
2023-05-01T19:36:11.580Z,10.79
2023-05-01T19:38:58.125Z,10.94
2023-05-01T19:41:44.754Z,10.69
2023-05-01T19:44:31.395Z,10.67
2023-05-01T19:47:17.940Z,10.56
2023-05-01T19:50:04.992Z,10.22
2023-05-01T19:52:52.779Z,10.23
2023-05-01T19:55:40.058Z,10.21
2023-05-01T19:58:27.658Z,10.20
2023-05-01T20:01:14.359Z,10.11
2023-05-01T20:04:00.787Z,10.05
2023-05-01T20:06:47.598Z,10.06
2023-05-01T20:09:34.174Z,9.19
2023-05-01T20:12:22.578Z,10.04
2023-05-01T20:15:09.587Z,10.05
2023-05-01T20:17:55.951Z,9.88
2023-05-01T20:20:42.677Z,9.58
2023-05-01T20:23:29.104Z,9.83
2023-05-01T20:26:15.247Z,9.81
2023-05-01T20:29:02.252Z,9.80
2023-05-01T20:31:51.309Z,9.71
2023-05-01T20:34:37.483Z,9.09
2023-05-01T20:37:23.957Z,9.74
2023-05-01T20:40:12.121Z,9.80
2023-05-01T20:42:59.495Z,9.52
2023-05-01T20:45:46.112Z,9.66
2023-05-01T20:48:32.740Z,9.79
2023-05-01T20:51:19.313Z,9.71
2023-05-01T20:54:06.044Z,9.49
2023-05-01T20:56:53.131Z,9.31
2023-05-01T20:59:39.590Z,9.35
2023-05-01T21:02:26.203Z,9.21
2023-05-01T21:05:12.679Z,9.19
2023-05-01T21:07:58.884Z,9.12
2023-05-01T21:10:45.056Z,9.15
2023-05-01T21:13:31.926Z,9.18
2023-05-01T21:16:19.584Z,9.02
2023-05-01T21:19:06.959Z,9.04
2023-05-01T21:21:55.199Z,9.12
2023-05-01T21:24:44.571Z,9.03
2023-05-01T21:27:31.013Z,8.95
2023-05-01T21:30:29.894Z,9.13
2023-05-01T21:33:17.415Z,9.07
2023-05-01T21:36:04.112Z,8.99
2023-05-01T21:38:50.832Z,9.10
2023-05-01T21:41:37.382Z,8.92
2023-05-01T21:44:29.541Z,9.30
2023-05-01T21:47:16.098Z,9.21
2023-05-01T21:50:02.391Z,9.28
2023-05-01T21:52:50.096Z,9.43
2023-05-01T21:55:36.322Z,9.24
2023-05-01T21:58:24.007Z,9.25
2023-05-01T22:01:13.599Z,9.10
2023-05-01T22:04:00.280Z,9.17
2023-05-01T22:06:47.176Z,8.91
2023-05-01T22:09:33.663Z,9.53
2023-05-01T22:12:20.454Z,9.39
2023-05-01T22:15:08.748Z,9.38
2023-05-01T22:17:56.551Z,9.32
2023-05-01T22:20:43.257Z,9.22
2023-05-01T22:23:29.492Z,9.19
2023-05-01T22:26:15.790Z,9.23
2023-05-01T22:29:02.658Z,9.17
2023-05-01T22:31:49.124Z,8.99
2023-05-01T22:34:35.758Z,9.16
2023-05-01T22:37:21.958Z,8.87
2023-05-01T22:40:08.932Z,9.22
2023-05-01T22:42:55.269Z,9.29
2023-05-01T22:45:42.826Z,9.22
2023-05-01T22:48:29.670Z,9.01
2023-05-01T22:51:18.307Z,9.14
2023-05-01T22:54:04.678Z,9.00
2023-05-01T22:56:51.639Z,9.01
2023-05-01T22:59:40.322Z,8.94
2023-05-01T23:02:26.910Z,8.90
2023-05-01T23:05:13.254Z,8.90
2023-05-01T23:07:59.735Z,8.89
2023-05-01T23:10:46.470Z,8.84
2023-05-01T23:13:32.809Z,8.77
2023-05-01T23:16:19.154Z,8.69
2023-05-01T23:19:06.654Z,8.64
2023-05-01T23:22:07.007Z,8.73
2023-05-01T23:24:53.325Z,8.71
2023-05-01T23:27:41.855Z,8.48
2023-05-01T23:30:28.205Z,8.96
2023-05-01T23:33:18.292Z,9.03
2023-05-01T23:36:10.295Z,8.97
2023-05-01T23:38:56.752Z,8.94
2023-05-01T23:41:43.851Z,8.69
2023-05-01T23:44:30.367Z,8.87
2023-05-01T23:47:17.122Z,8.61
2023-05-01T23:50:04.499Z,8.70
2023-05-01T23:52:51.956Z,8.80
2023-05-01T23:55:38.632Z,8.60
2023-05-01T23:58:25.036Z,8.56
